Tropical Cyclones
[Index]
Main Index Home Page Stock Weather Photos Extreme Storms Discussion Storm News and Storm Chasing Reports Tropical Cyclones / Hurricanes / Typhoons Weather Data and Links Wild Fires / Bushfires Weather Observation Techniques Weather Picture Catalogue Tornado Pictures and Reports Stock Video Footage and DVDs for sale
Season 1992-1993 Tropical Cyclone PREMA Track Map
Season 1992-1993 Summaries: [BoM-AU] [JTWC-AU] [JTWC-SIO] [JTWC-SPAC] [JTWC-SH]
<<- Previous TC | JTWC 1992-1993 Season | Next TC ->>

click for intensity scale information  Lat/long Grid: Show Hide

 Date Labels: Show Hide

Joint Typhoon Warning Centre Cyclone Data

Name: PREMA

24 Mar 1993 00:00 UTC to 01 Apr 1993 12:00 UTC

    date/time    lat    long     hPa   cat  kts
1993-03-24 00   12.2   178.7W                 20          
1993-03-24 06   12.2   179.3W                 20          
1993-03-24 12   12.2   179.9W                 20          
1993-03-24 18   12.2   179.5                  20          
1993-03-25 00   12.2   178.8                  20          
1993-03-25 06   12.2   177.9                  25          
1993-03-25 12   12.1   176.9                  25          
1993-03-25 18   11.9   175.8                  25          
1993-03-26 00   11.8   174.7                  25          
1993-03-26 06   12.0   173.6                  25          
1993-03-26 12   12.6   172.8                  25          
1993-03-26 18   13.3   172.3                  25          
1993-03-27 00   13.7   172.0                  30          
1993-03-27 06   14.0   171.8                  35          
1993-03-27 12   14.3   171.5            1     40          
1993-03-27 18   14.6   171.3            1     50          
1993-03-28 00   14.9   171.0            2     60          
1993-03-28 06   15.2   170.7            3     75          
1993-03-28 12   15.4   170.3            3     95          
1993-03-28 18   15.6   169.8            4    110          
1993-03-29 00   15.9   169.2            4    120          
1993-03-29 06   16.4   168.7            5    125          
1993-03-29 12   17.0   168.2            5    125          
1993-03-29 18   17.7   167.8            5    125          
1993-03-30 00   18.5   167.5            5    125          
1993-03-30 06   19.3   167.4            5    125          
1993-03-30 12   20.3   167.9            5    125          
1993-03-30 18   21.1   168.8            4    120          
1993-03-31 00   22.0   170.0            4    115          
1993-03-31 06   23.1   171.7            4    105          
1993-03-31 12   24.0   173.6            3     90          
1993-03-31 18   24.9   175.7            3     80          
1993-04-01 00   25.7   177.8            2     70          
1993-04-01 06   26.4   179.9W           2     60          
1993-04-01 12   27.2   177.4W           1     50          
Winds are 1-min average.

Tropical cyclone tracks developed by Michael Bath using data from the Joint Typhoon Warning Centre Best Tracks and Google Maps.


[Australian Severe Weather index] [Copyright Notice] [Email Contacts] [Search This Site] [Privacy Policy]
Document: tropical_cyclone_prema.htm Updated: 18 September 2016